Time,TemperatureF,DewpointF,PressureIn,WindDirection,WindDirectionDegrees,WindSpeedMPH,WindSpeedGustMPH,Humidity,HourlyPrecipIn,Conditions,Clouds,dailyrainin,SolarRadiationWatts/m^2,SoftwareType,DateUTC
2013-02-22 00:00:00,40.8,34.8,30.10,North,360,4.6,4.6,79,0.00,,SKC,0.00,0.0,WeatherDisplay:10.37,2013-02-22 08:00:00,
2013-02-22 00:05:00,40.7,34.7,30.10,North,360,3.5,3.5,79,0.00,,SKC,0.00,0.0,WeatherDisplay:10.37,2013-02-22 08:05:00,
2013-02-22 00:10:00,40.5,34.8,30.10,North,360,3.5,3.5,80,0.00,,SKC,0.00,0.0,WeatherDisplay:10.37,2013-02-22 08:10:00,
2013-02-22 00:15:00,40.3,34.6,30.10,North,360,4.6,4.6,80,0.00,,SKC,0.00,0.0,WeatherDisplay:10.37,2013-02-22 08:15:00,
2013-02-22 00:20:00,40.2,34.5,30.10,North,360,4.6,4.6,80,0.00,,SKC,0.00,0.0,WeatherDisplay:10.37,2013-02-22 08:20:00,
2013-02-22 00:25:00,40.2,34.5,30.10,North,5,4.6,4.6,80,0.00,,SKC,0.00,0.0,WeatherDisplay:10.37,2013-02-22 08:25:00,
2013-02-22 00:30:00,40.3,34.6,30.10,NNE,12,3.5,3.5,80,0.00,,SKC,0.00,0.0,WeatherDisplay:10.37,2013-02-22 08:30:00,
2013-02-22 00:35:00,40.3,34.3,30.10,North,350,5.8,5.8,79,0.00,,SKC,0.00,0.0,WeatherDisplay:10.37,2013-02-22 08:35:00,
2013-02-22 00:40:00,40.2,34.2,30.10,NNE,17,5.0,5.0,79,0.00,,SKC,0.00,0.0,WeatherDisplay:10.37,2013-02-22 08:40:00,
2013-02-22 00:45:00,40.2,34.2,30.10,North,11,4.6,4.6,79,0.00,,SKC,0.00,0.0,WeatherDisplay:10.37,2013-02-22 08:45:00,
2013-02-22 00:50:00,40.0,34.0,30.10,North,11,3.5,3.5,79,0.00,,SKC,0.00,0.0,WeatherDisplay:10.37,2013-02-22 08:50:00,
2013-02-22 00:55:00,40.0,34.0,30.11,North,11,5.8,5.8,79,0.00,,SKC,0.00,0.0,WeatherDisplay:10.37,2013-02-22 08:55:00,
2013-02-22 01:00:00,40.0,34.0,30.11,North,11,3.5,3.5,79,0.00,,SKC,0.00,0.0,WeatherDisplay:10.37,2013-02-22 09:00:00,
2013-02-22 01:05:00,40.0,34.0,30.11,North,11,5.8,5.8,79,0.00,,SKC,0.00,0.0,WeatherDisplay:10.37,2013-02-22 09:05:00,
2013-02-22 01:10:00,39.9,33.9,30.12,North,11,3.5,3.5,79,0.00,,SKC,0.00,0.0,WeatherDisplay:10.37,2013-02-22 09:10:00,
2013-02-22 01:15:00,39.8,34.1,30.12,North,11,3.5,3.5,80,0.00,,SKC,0.00,0.0,WeatherDisplay:10.37,2013-02-22 09:15:00,
2013-02-22 01:20:00,39.6,33.9,30.12,North,11,3.5,3.5,80,0.00,,SKC,0.00,0.0,WeatherDisplay:10.37,2013-02-22 09:20:00,
2013-02-22 01:25:00,39.5,33.8,30.12,North,11,3.5,3.5,80,0.00,,SKC,0.00,0.0,WeatherDisplay:10.37,2013-02-22 09:25:00,
2013-02-22 01:30:00,39.4,33.7,30.12,North,11,5.0,5.0,80,0.00,,SKC,0.00,0.0,WeatherDisplay:10.37,2013-02-22 09:30:00,
2013-02-22 01:35:00,39.3,33.6,30.12,North,11,3.5,3.5,80,0.00,,SKC,0.00,0.0,WeatherDisplay:10.37,2013-02-22 09:35:00,
2013-02-22 01:40:00,39.2,33.9,30.11,North,11,4.6,4.6,81,0.00,,SKC,0.00,0.0,WeatherDisplay:10.37,2013-02-22 09:40:00,
2013-02-22 01:45:00,39.0,33.7,30.11,North,11,4.6,4.6,81,0.00,,SKC,0.00,0.0,WeatherDisplay:10.37,2013-02-22 09:45:00,
2013-02-22 01:50:00,38.9,33.6,30.11,North,11,4.6,4.6,81,0.00,,SKC,0.00,0.0,WeatherDisplay:10.37,2013-02-22 09:50:00,
2013-02-22 01:55:00,38.8,33.5,30.11,North,10,4.6,4.6,81,0.00,,SKC,0.00,0.0,WeatherDisplay:10.37,2013-02-22 09:55:00,
2013-02-22 02:00:00,38.7,33.4,30.11,North,360,4.6,4.6,81,0.00,,SKC,0.00,0.0,WeatherDisplay:10.37,2013-02-22 10:00:00,
2013-02-22 02:05:00,38.6,33.3,30.11,North,360,3.5,3.5,81,0.00,,SKC,0.00,0.0,WeatherDisplay:10.37,2013-02-22 10:05:00,
2013-02-22 02:10:00,38.6,33.6,30.11,North,360,4.6,4.6,82,0.00,,SKC,0.00,0.0,WeatherDisplay:10.37,2013-02-22 10:10:00,
2013-02-22 02:15:00,38.6,33.6,30.11,North,355,5.0,5.0,82,0.00,,SKC,0.00,0.0,WeatherDisplay:10.37,2013-02-22 10:15:00,
2013-02-22 02:20:00,38.6,33.3,30.11,North,351,5.8,5.8,81,0.00,,SKC,0.00,0.0,WeatherDisplay:10.37,2013-02-22 10:20:00,
2013-02-22 02:25:00,38.7,33.4,30.11,NNE,13,5.8,5.8,81,0.00,,SKC,0.00,0.0,WeatherDisplay:10.37,2013-02-22 10:25:00,
2013-02-22 02:30:00,38.7,33.4,30.11,NNE,12,5.0,5.0,81,0.00,,SKC,0.00,0.0,WeatherDisplay:10.37,2013-02-22 10:30:00,
2013-02-22 02:36:00,38.6,33.3,30.11,NNE,12,3.5,3.5,81,0.00,,SKC,0.00,0.0,WeatherDisplay:10.37,2013-02-22 10:36:00,
2013-02-22 02:41:00,38.6,33.3,30.10,NNW,342,3.5,3.5,81,0.00,,SKC,0.00,0.0,WeatherDisplay:10.37,2013-02-22 10:41:00,
2013-02-22 02:46:00,38.5,33.2,30.10,NNE,20,4.6,4.6,81,0.00,,SKC,0.00,0.0,WeatherDisplay:10.37,2013-02-22 10:46:00,
2013-02-22 02:51:00,38.4,33.1,30.10,NNE,15,4.0,4.0,81,0.00,,SKC,0.00,0.0,WeatherDisplay:10.37,2013-02-22 10:51:00,
2013-02-22 02:56:00,38.4,33.1,30.10,North,5,3.5,3.5,81,0.00,,SKC,0.00,0.0,WeatherDisplay:10.37,2013-02-22 10:56:00,
2013-02-22 03:01:00,38.3,33.0,30.10,North,355,6.9,6.9,81,0.00,,SKC,0.00,0.0,WeatherDisplay:10.37,2013-02-22 11:01:00,
2013-02-22 03:06:00,38.2,32.9,30.10,North,350,4.6,4.6,81,0.00,,SKC,0.00,0.0,WeatherDisplay:10.37,2013-02-22 11:06:00,
2013-02-22 03:11:00,38.0,32.7,30.10,North,355,3.5,3.5,81,0.00,,SKC,0.00,0.0,WeatherDisplay:10.37,2013-02-22 11:11:00,
2013-02-22 03:16:00,37.9,32.9,30.10,North,355,4.6,4.6,82,0.00,,SKC,0.00,0.0,WeatherDisplay:10.37,2013-02-22 11:16:00,
2013-02-22 03:21:00,37.8,32.8,30.10,North,355,4.0,4.0,82,0.00,,SKC,0.00,0.0,WeatherDisplay:10.37,2013-02-22 11:21:00,
2013-02-22 03:26:00,37.8,32.8,30.10,North,355,3.5,3.5,82,0.00,,SKC,0.00,0.0,WeatherDisplay:10.37,2013-02-22 11:26:00,
2013-02-22 03:31:00,37.9,32.9,30.10,North,355,4.0,4.0,82,0.00,,SKC,0.00,0.0,WeatherDisplay:10.37,2013-02-22 11:31:00,
2013-02-22 03:36:00,37.8,32.8,30.10,North,355,4.6,4.6,82,0.00,,SKC,0.00,0.0,WeatherDisplay:10.37,2013-02-22 11:36:00,
2013-02-22 03:41:00,37.6,32.6,30.10,North,355,3.5,3.5,82,0.00,,SKC,0.00,0.0,WeatherDisplay:10.37,2013-02-22 11:41:00,
2013-02-22 03:46:00,37.6,32.6,30.10,North,355,4.6,4.6,82,0.00,,SKC,0.00,0.0,WeatherDisplay:10.37,2013-02-22 11:46:00,
2013-02-22 03:51:00,37.4,32.4,30.10,North,355,3.5,3.5,82,0.00,,SKC,0.00,0.0,WeatherDisplay:10.37,2013-02-22 11:51:00,
2013-02-22 03:56:00,37.3,32.6,30.10,North,355,3.5,3.5,83,0.00,,SKC,0.00,0.0,WeatherDisplay:10.37,2013-02-22 11:56:00,
2013-02-22 04:01:00,37.2,32.5,30.10,North,355,3.5,3.5,83,0.00,,SKC,0.00,0.0,WeatherDisplay:10.37,2013-02-22 12:01:00,
2013-02-22 04:06:00,37.1,32.4,30.10,North,355,3.5,3.5,83,0.00,,SKC,0.00,0.0,WeatherDisplay:10.37,2013-02-22 12:06:00,
2013-02-22 04:11:00,37.1,32.7,30.10,North,355,4.0,4.0,84,0.00,,SKC,0.00,0.0,WeatherDisplay:10.37,2013-02-22 12:11:00,
2013-02-22 04:16:00,37.1,32.7,30.10,North,355,3.5,3.6,84,0.00,,SKC,0.00,0.0,WeatherDisplay:10.37,2013-02-22 12:16:00,
2013-02-22 04:21:00,37.1,32.4,30.10,North,355,4.6,4.6,83,0.00,,SKC,0.00,0.0,WeatherDisplay:10.37,2013-02-22 12:21:00,
2013-02-22 04:26:00,37.0,32.3,30.11,North,355,3.5,3.5,83,0.00,,SKC,0.00,0.0,WeatherDisplay:10.37,2013-02-22 12:26:00,
2013-02-22 04:31:00,37.0,32.6,30.11,North,355,5.0,5.0,84,0.00,,SKC,0.00,0.0,WeatherDisplay:10.37,2013-02-22 12:31:00,
2013-02-22 04:36:00,36.9,32.5,30.11,North,355,3.5,3.5,84,0.00,,SKC,0.00,0.0,WeatherDisplay:10.37,2013-02-22 12:36:00,
2013-02-22 04:41:00,37.0,32.6,30.11,North,355,5.0,5.0,84,0.00,,SKC,0.00,0.0,WeatherDisplay:10.37,2013-02-22 12:41:00,
2013-02-22 04:46:00,37.0,32.3,30.11,North,355,4.0,4.0,83,0.00,,SKC,0.00,0.0,WeatherDisplay:10.37,2013-02-22 12:46:00,
2013-02-22 04:51:00,36.9,32.5,30.11,North,355,4.6,4.6,84,0.00,,SKC,0.00,0.0,WeatherDisplay:10.37,2013-02-22 12:51:00,
2013-02-22 04:56:00,36.9,32.5,30.12,North,355,4.6,4.6,84,0.00,,SKC,0.00,0.0,WeatherDisplay:10.37,2013-02-22 12:56:00,
2013-02-22 05:01:00,36.9,32.5,30.12,North,355,3.5,3.5,84,0.00,,SKC,0.00,0.0,WeatherDisplay:10.37,2013-02-22 13:01:00,
2013-02-22 05:06:00,36.7,32.3,30.12,North,355,3.5,3.5,84,0.00,,SKC,0.00,0.0,WeatherDisplay:10.37,2013-02-22 13:06:00,
2013-02-22 05:11:00,36.6,32.2,30.12,North,355,3.5,3.5,84,0.00,,SKC,0.00,0.0,WeatherDisplay:10.37,2013-02-22 13:11:00,
2013-02-22 05:16:00,36.4,32.3,30.12,North,355,3.5,3.5,85,0.00,,SKC,0.00,0.0,WeatherDisplay:10.37,2013-02-22 13:16:00,
2013-02-22 05:21:00,36.4,32.3,30.12,North,355,5.0,5.0,85,0.00,,SKC,0.00,0.0,WeatherDisplay:10.37,2013-02-22 13:21:00,
2013-02-22 05:26:00,36.5,32.4,30.12,NNE,15,3.5,3.5,85,0.00,,SKC,0.00,0.0,WeatherDisplay:10.37,2013-02-22 13:26:00,
2013-02-22 05:31:00,36.5,32.4,30.12,North,5,4.6,4.6,85,0.00,,SKC,0.00,0.0,WeatherDisplay:10.37,2013-02-22 13:31:00,
2013-02-22 05:36:00,36.5,32.4,30.12,North,355,3.5,3.5,85,0.00,,SKC,0.00,0.0,WeatherDisplay:10.37,2013-02-22 13:36:00,
2013-02-22 05:41:00,36.6,32.5,30.13,North,355,4.6,4.6,85,0.00,,SKC,0.00,0.0,WeatherDisplay:10.37,2013-02-22 13:41:00,
2013-02-22 05:46:00,36.6,32.5,30.13,North,355,3.5,3.5,85,0.00,,SKC,0.00,0.0,WeatherDisplay:10.37,2013-02-22 13:46:00,
2013-02-22 05:51:00,36.5,32.4,30.13,North,355,3.5,3.5,85,0.00,,SKC,0.00,0.0,WeatherDisplay:10.37,2013-02-22 13:51:00,
2013-02-22 05:56:00,36.6,32.5,30.12,North,355,3.5,3.5,85,0.00,,SKC,0.00,0.0,WeatherDisplay:10.37,2013-02-22 13:56:00,
2013-02-22 06:01:00,36.7,32.6,30.12,North,355,4.6,4.6,85,0.00,,SKC,0.00,0.0,WeatherDisplay:10.37,2013-02-22 14:01:00,
2013-02-22 06:06:00,36.8,32.7,30.12,North,360,3.5,3.5,85,0.00,,SKC,0.00,0.0,WeatherDisplay:10.37,2013-02-22 14:06:00,
2013-02-22 06:11:00,36.8,32.7,30.13,North,360,4.0,4.0,85,0.00,,SKC,0.00,0.0,WeatherDisplay:10.37,2013-02-22 14:11:00,
2013-02-22 06:16:00,36.8,32.7,30.13,North,360,3.5,3.5,85,0.00,,SKC,0.00,0.0,WeatherDisplay:10.37,2013-02-22 14:16:00,
2013-02-22 06:21:00,36.8,32.7,30.13,North,360,3.5,3.5,85,0.00,OVC,SKC,0.00,0.0,WeatherDisplay:10.37,2013-02-22 14:21:00,
2013-02-22 06:26:00,37.0,32.9,30.13,North,360,3.5,3.5,85,0.00,OVC,SKC,0.00,0.0,WeatherDisplay:10.37,2013-02-22 14:26:00,
2013-02-22 06:31:00,37.0,32.9,30.13,North,360,3.5,3.5,85,0.00,OVC,SKC,0.00,0.0,WeatherDisplay:10.37,2013-02-22 14:31:00,
2013-02-22 06:36:00,37.0,32.9,30.13,North,360,3.5,3.5,85,0.00,OVC,SKC,0.00,0.0,WeatherDisplay:10.37,2013-02-22 14:36:00,
2013-02-22 06:41:00,36.9,32.8,30.13,North,360,3.5,3.5,85,0.00,OVC,SKC,0.00,0.0,WeatherDisplay:10.37,2013-02-22 14:41:00,
2013-02-22 06:46:00,36.8,32.7,30.13,North,360,3.5,3.5,85,0.00,OVC,SKC,0.00,0.0,WeatherDisplay:10.37,2013-02-22 14:46:00,
2013-02-22 06:51:00,36.8,33.0,30.13,North,360,4.0,4.0,86,0.00,OVC,SKC,0.00,7.0,WeatherDisplay:10.37,2013-02-22 14:51:00,
2013-02-22 06:56:00,36.8,33.0,30.14,North,360,3.5,3.5,86,0.00,OVC,SKC,0.00,12.0,WeatherDisplay:10.37,2013-02-22 14:56:00,
2013-02-22 07:01:00,36.8,33.0,30.14,North,360,3.5,3.7,86,0.00,OVC,SKC,0.00,19.0,WeatherDisplay:10.37,2013-02-22 15:01:00,
2013-02-22 07:06:00,37.0,33.2,30.14,North,360,4.0,4.0,86,0.00,OVC,SKC,0.00,25.0,WeatherDisplay:10.37,2013-02-22 15:06:00,
2013-02-22 07:11:00,37.2,33.4,30.15,North,360,3.5,3.5,86,0.00,OVC,SKC,0.00,33.0,WeatherDisplay:10.37,2013-02-22 15:11:00,
2013-02-22 07:16:00,37.4,33.6,30.15,North,360,3.5,3.5,86,0.00,OVC,SKC,0.00,44.0,WeatherDisplay:10.37,2013-02-22 15:16:00,
2013-02-22 07:21:00,37.6,33.8,30.15,North,360,3.5,3.5,86,0.00,OVC,SKC,0.00,54.0,WeatherDisplay:10.37,2013-02-22 15:21:00,
2013-02-22 07:26:00,37.7,33.9,30.15,North,360,3.5,3.5,86,0.00,OVC,SKC,0.00,65.0,WeatherDisplay:10.37,2013-02-22 15:26:00,
2013-02-22 07:31:00,37.9,33.8,30.15,North,360,3.5,3.5,85,0.00,OVC,SKC,0.00,83.0,WeatherDisplay:10.37,2013-02-22 15:31:00,
2013-02-22 07:36:00,38.2,34.1,30.15,North,360,4.6,4.6,85,0.00,OVC,SKC,0.00,97.0,WeatherDisplay:10.37,2013-02-22 15:36:00,
2013-02-22 07:41:00,38.6,34.5,30.15,North,360,3.5,3.5,85,0.00,OVC,SKC,0.00,109.0,WeatherDisplay:10.37,2013-02-22 15:41:00,
2013-02-22 07:46:00,39.0,34.9,30.15,NNW,341,3.5,3.5,85,0.00,OVC,SKC,0.00,127.0,WeatherDisplay:10.37,2013-02-22 15:46:00,
2013-02-22 07:51:00,39.5,35.4,30.15,NNW,341,3.5,3.5,85,0.00,OVC,SKC,0.00,142.0,WeatherDisplay:10.37,2013-02-22 15:51:00,
2013-02-22 07:56:00,40.1,35.7,30.16,North,355,3.5,3.5,84,0.00,OVC,SKC,0.00,156.0,WeatherDisplay:10.37,2013-02-22 15:56:00,
2013-02-22 08:01:00,40.7,35.9,30.16,NNE,19,3.5,3.5,83,0.00,OVC,SKC,0.00,171.0,WeatherDisplay:10.37,2013-02-22 16:01:00,
2013-02-22 08:06:00,41.2,36.1,30.16,North,11,3.5,3.5,82,0.00,OVC,SKC,0.00,188.0,WeatherDisplay:10.37,2013-02-22 16:06:00,
2013-02-22 08:11:00,41.8,36.7,30.16,North,11,2.3,2.3,82,0.00,OVC,SKC,0.00,204.0,WeatherDisplay:10.37,2013-02-22 16:11:00,
2013-02-22 08:16:00,42.5,37.1,30.16,North,11,3.5,3.5,81,0.00,OVC,SKC,0.00,220.0,WeatherDisplay:10.37,2013-02-22 16:16:00,
2013-02-22 08:21:00,43.1,37.3,30.16,North,11,3.5,3.5,80,0.00,OVC,SKC,0.00,234.0,WeatherDisplay:10.37,2013-02-22 16:21:00,
2013-02-22 08:26:00,43.8,38.3,30.16,North,11,3.0,3.0,81,0.00,OVC,SKC,0.00,250.0,WeatherDisplay:10.37,2013-02-22 16:26:00,
2013-02-22 08:31:00,44.3,38.5,30.16,North,11,2.3,2.3,80,0.00,OVC,SKC,0.00,265.0,WeatherDisplay:10.37,2013-02-22 16:31:00,
2013-02-22 08:36:00,45.1,39.3,30.16,North,11,2.3,2.3,80,0.00,OVC,SKC,0.00,281.0,WeatherDisplay:10.37,2013-02-22 16:36:00,
2013-02-22 08:41:00,45.7,39.2,30.16,North,11,1.2,1.2,78,0.00,OVC,SKC,0.00,297.0,WeatherDisplay:10.37,2013-02-22 16:41:00,
2013-02-22 08:46:00,46.3,39.1,30.16,North,11,2.3,0.0,76,0.00,OVC,SKC,0.00,315.0,WeatherDisplay:10.37,2013-02-22 16:46:00,
2013-02-22 08:51:00,47.3,39.8,30.16,NE,37,1.2,1.2,75,0.00,OVC,SKC,0.00,332.0,WeatherDisplay:10.37,2013-02-22 16:51:00,
2013-02-22 08:56:00,47.8,39.9,30.16,East,101,2.3,2.3,74,0.00,OVC,SKC,0.00,345.0,WeatherDisplay:10.37,2013-02-22 16:56:00,
2013-02-22 09:01:00,47.9,40.0,30.16,East,101,2.3,2.3,74,0.00,OVC,SKC,0.00,360.0,WeatherDisplay:10.37,2013-02-22 17:01:00,
2013-02-22 09:06:00,48.0,39.8,30.16,SE,134,3.5,3.5,73,0.00,OVC,SKC,0.00,376.0,WeatherDisplay:10.37,2013-02-22 17:06:00,
2013-02-22 09:11:00,48.1,40.2,30.16,SE,139,4.6,4.6,74,0.00,OVC,SKC,0.00,392.0,WeatherDisplay:10.37,2013-02-22 17:11:00,
2013-02-22 09:16:00,47.9,40.0,30.16,SSE,148,4.0,4.0,74,0.00,OVC,SKC,0.00,408.0,WeatherDisplay:10.37,2013-02-22 17:16:00,
2013-02-22 09:21:00,47.8,40.3,30.16,SE,146,5.0,5.0,75,0.00,OVC,SKC,0.00,422.0,WeatherDisplay:10.37,2013-02-22 17:21:00,
2013-02-22 09:26:00,47.6,40.1,30.16,SSE,147,3.5,3.5,75,0.00,OVC,SKC,0.00,436.0,WeatherDisplay:10.37,2013-02-22 17:26:00,
2013-02-22 09:31:00,47.6,40.1,30.16,SSE,147,3.5,3.5,75,0.00,OVC,SKC,0.00,448.0,WeatherDisplay:10.37,2013-02-22 17:31:00,
2013-02-22 09:36:00,48.0,40.1,30.16,SSE,150,4.6,4.6,74,0.00,OVC,SKC,0.00,462.0,WeatherDisplay:10.37,2013-02-22 17:36:00,
2013-02-22 09:41:00,48.2,40.6,30.17,SSE,152,4.6,4.6,75,0.00,OVC,SKC,0.00,475.0,WeatherDisplay:10.37,2013-02-22 17:41:00,
2013-02-22 09:46:00,48.3,40.4,30.17,SSE,153,5.0,5.0,74,0.00,OVC,SKC,0.00,485.0,WeatherDisplay:10.37,2013-02-22 17:46:00,
2013-02-22 09:51:00,48.6,40.7,30.17,SSE,154,5.8,5.8,74,0.00,OVC,SKC,0.00,503.0,WeatherDisplay:10.37,2013-02-22 17:51:00,
2013-02-22 09:56:00,48.7,40.4,30.16,SSE,154,4.6,4.6,73,0.00,OVC,SKC,0.00,520.0,WeatherDisplay:10.37,2013-02-22 17:56:00,
2013-02-22 10:01:00,49.0,41.1,30.16,SSE,153,4.6,4.6,74,0.00,OVC,SKC,0.00,526.0,WeatherDisplay:10.37,2013-02-22 18:01:00,
2013-02-22 10:06:00,49.1,40.8,30.16,SSE,164,4.6,4.6,73,0.00,OVC,SKC,0.00,534.0,WeatherDisplay:10.37,2013-02-22 18:06:00,
2013-02-22 10:11:00,48.7,40.4,30.16,South,171,5.8,5.8,73,0.00,OVC,SKC,0.00,547.0,WeatherDisplay:10.37,2013-02-22 18:11:00,
2013-02-22 10:16:00,48.8,40.9,30.16,South,169,5.8,5.8,74,0.00,OVC,SKC,0.00,555.0,WeatherDisplay:10.37,2013-02-22 18:16:00,
2013-02-22 10:21:00,48.7,41.1,30.16,SSW,195,4.6,4.6,75,0.00,OVC,SKC,0.00,571.0,WeatherDisplay:10.37,2013-02-22 18:21:00,
2013-02-22 10:26:00,48.7,41.5,30.17,SE,144,4.6,4.6,76,0.00,OVC,SKC,0.00,587.0,WeatherDisplay:10.37,2013-02-22 18:26:00,
2013-02-22 10:31:00,49.3,42.1,30.17,SE,142,4.6,4.6,76,0.00,OVC,SKC,0.00,591.0,WeatherDisplay:10.37,2013-02-22 18:31:00,
2013-02-22 10:36:00,49.8,42.5,30.17,SSW,205,4.6,4.6,76,0.00,OVC,SKC,0.00,589.0,WeatherDisplay:10.37,2013-02-22 18:36:00,
2013-02-22 10:41:00,49.4,41.5,30.17,SSW,207,4.0,4.0,74,0.00,OVC,SKC,0.00,599.0,WeatherDisplay:10.37,2013-02-22 18:41:00,
2013-02-22 10:46:00,49.2,41.3,30.17,WSW,244,8.1,8.1,74,0.00,OVC,SKC,0.00,601.0,WeatherDisplay:10.37,2013-02-22 18:46:00,
2013-02-22 10:51:00,49.2,42.0,30.17,SW,220,9.2,9.2,76,0.00,OVC,SKC,0.00,626.0,WeatherDisplay:10.37,2013-02-22 18:51:00,
2013-02-22 10:56:00,49.6,42.3,30.18,WSW,247,9.2,9.2,76,0.00,OVC,SKC,0.00,626.0,WeatherDisplay:10.37,2013-02-22 18:56:00,
2013-02-22 11:01:00,49.5,42.2,30.18,SW,224,5.8,5.8,76,0.00,OVC,SKC,0.00,638.0,WeatherDisplay:10.37,2013-02-22 19:01:00,
2013-02-22 11:06:00,50.0,42.4,30.18,SW,230,6.9,6.9,75,0.00,OVC,SKC,0.00,635.0,WeatherDisplay:10.37,2013-02-22 19:06:00,
2013-02-22 11:11:00,49.5,41.6,30.18,WSW,240,8.1,8.1,74,0.00,OVC,SKC,0.00,640.0,WeatherDisplay:10.37,2013-02-22 19:11:00,
2013-02-22 11:16:00,48.7,41.1,30.18,WSW,248,5.8,5.8,75,0.00,OVC,SKC,0.00,657.0,WeatherDisplay:10.37,2013-02-22 19:16:00,
2013-02-22 11:21:00,49.1,41.5,30.18,SW,223,6.9,6.9,75,0.00,OVC,SKC,0.00,664.0,WeatherDisplay:10.37,2013-02-22 19:21:00,
2013-02-22 11:26:00,49.9,41.9,30.18,SW,230,8.1,8.1,74,0.00,OVC,SKC,0.00,670.0,WeatherDisplay:10.37,2013-02-22 19:26:00,
2013-02-22 11:31:00,50.5,42.5,30.18,WSW,239,6.9,6.9,74,0.00,OVC,SKC,0.00,675.0,WeatherDisplay:10.37,2013-02-22 19:31:00,
2013-02-22 11:36:00,50.5,41.8,30.18,WSW,244,8.1,8.1,72,0.00,OVC,SKC,0.00,677.0,WeatherDisplay:10.37,2013-02-22 19:36:00,
2013-02-22 11:41:00,50.2,41.9,30.18,SW,225,8.1,8.1,73,0.00,OVC,SKC,0.00,677.0,WeatherDisplay:10.37,2013-02-22 19:41:00,
2013-02-22 11:46:00,49.8,42.2,30.18,WSW,246,6.9,6.9,75,0.00,OVC,SKC,0.00,686.0,WeatherDisplay:10.37,2013-02-22 19:46:00,
2013-02-22 11:51:00,50.1,42.8,30.17,SW,231,4.6,4.6,76,0.00,OVC,SKC,0.00,684.0,WeatherDisplay:10.37,2013-02-22 19:51:00,
2013-02-22 11:56:00,50.5,43.6,30.17,SW,223,4.6,4.6,77,0.00,OVC,SKC,0.00,675.0,WeatherDisplay:10.37,2013-02-22 19:56:00,
2013-02-22 12:01:00,50.9,43.9,30.17,SSW,210,8.1,8.1,77,0.00,OVC,SKC,0.00,675.0,WeatherDisplay:10.37,2013-02-22 20:01:00,
2013-02-22 12:06:00,50.8,44.5,30.16,SSW,206,10.0,10.0,79,0.00,OVC,SKC,0.00,689.0,WeatherDisplay:10.37,2013-02-22 20:06:00,
2013-02-22 12:11:00,51.2,45.2,30.16,SW,224,6.9,6.9,80,0.00,OVC,SKC,0.00,696.0,WeatherDisplay:10.37,2013-02-22 20:11:00,
2013-02-22 12:16:00,51.6,44.6,30.16,WSW,242,8.1,8.1,77,0.00,OVC,SKC,0.00,696.0,WeatherDisplay:10.37,2013-02-22 20:16:00,
2013-02-22 12:21:00,52.0,45.4,30.16,SSW,212,3.5,3.5,78,0.00,OVC,SKC,0.00,700.0,WeatherDisplay:10.37,2013-02-22 20:21:00,
2013-02-22 12:26:00,52.5,45.8,30.16,South,185,5.8,5.8,78,0.00,OVC,SKC,0.00,700.0,WeatherDisplay:10.37,2013-02-22 20:26:00,
2013-02-22 12:31:00,52.2,45.5,30.16,SW,214,10.4,10.4,78,0.00,OVC,SKC,0.00,698.0,WeatherDisplay:10.37,2013-02-22 20:31:00,
2013-02-22 12:36:00,51.6,45.6,30.15,South,182,9.2,9.2,80,0.00,OVC,SKC,0.00,698.0,WeatherDisplay:10.37,2013-02-22 20:36:00,
2013-02-22 12:41:00,51.6,45.6,30.15,SSW,207,10.4,10.4,80,0.00,OVC,SKC,0.00,696.0,WeatherDisplay:10.37,2013-02-22 20:41:00,
2013-02-22 12:46:00,51.5,45.9,30.15,SW,217,10.4,10.4,81,0.00,OVC,SKC,0.00,693.0,WeatherDisplay:10.37,2013-02-22 20:46:00,
2013-02-22 12:51:00,51.9,46.3,30.15,SSW,202,11.5,11.5,81,0.00,OVC,SKC,0.00,693.0,WeatherDisplay:10.37,2013-02-22 20:51:00,
2013-02-22 12:56:00,52.1,46.1,30.15,SSW,195,8.1,8.1,80,0.00,OVC,SKC,0.00,687.0,WeatherDisplay:10.37,2013-02-22 20:56:00,
2013-02-22 13:01:00,51.9,46.3,30.15,South,186,10.4,10.4,81,0.00,OVC,SKC,0.00,686.0,WeatherDisplay:10.37,2013-02-22 21:01:00,
2013-02-22 13:06:00,52.3,46.6,30.14,SSE,166,8.1,8.1,81,0.00,OVC,SKC,0.00,684.0,WeatherDisplay:10.37,2013-02-22 21:06:00,
2013-02-22 13:11:00,52.9,46.9,30.14,SSW,199,7.0,7.0,80,0.00,OVC,SKC,0.00,680.0,WeatherDisplay:10.37,2013-02-22 21:11:00,
2013-02-22 13:16:00,53.3,47.3,30.14,WSW,247,6.9,6.9,80,0.00,OVC,SKC,0.00,675.0,WeatherDisplay:10.37,2013-02-22 21:16:00,
2013-02-22 13:21:00,53.0,47.0,30.13,SSW,212,11.5,11.5,80,0.00,OVC,SKC,0.00,671.0,WeatherDisplay:10.37,2013-02-22 21:21:00,
2013-02-22 13:26:00,52.6,46.9,30.13,SSW,197,12.0,12.0,81,0.00,OVC,SKC,0.00,664.0,WeatherDisplay:10.37,2013-02-22 21:26:00,
2013-02-22 13:31:00,52.8,47.8,30.13,West,270,9.2,9.2,83,0.00,OVC,SKC,0.00,659.0,WeatherDisplay:10.37,2013-02-22 21:31:00,
2013-02-22 13:37:00,53.5,48.1,30.12,WSW,239,6.0,6.0,82,0.00,OVC,SKC,0.00,654.0,WeatherDisplay:10.37,2013-02-22 21:37:00,
2013-02-22 13:42:00,54.5,48.1,30.12,WSW,257,10.4,10.4,79,0.00,OVC,SKC,0.00,649.0,WeatherDisplay:10.37,2013-02-22 21:42:00,
2013-02-22 13:47:00,55.1,48.0,30.12,WSW,242,11.5,11.5,77,0.00,OVC,SKC,0.00,645.0,WeatherDisplay:10.37,2013-02-22 21:47:00,
2013-02-22 13:52:00,54.7,47.6,30.11,SSW,213,11.5,11.5,77,0.00,OVC,SKC,0.00,638.0,WeatherDisplay:10.37,2013-02-22 21:52:00,
2013-02-22 13:57:00,54.6,47.9,30.11,SW,236,11.5,11.5,78,0.00,OVC,SKC,0.00,631.0,WeatherDisplay:10.37,2013-02-22 21:57:00,
2013-02-22 14:02:00,54.7,48.0,30.11,WSW,250,9.2,9.2,78,0.00,OVC,SKC,0.00,624.0,WeatherDisplay:10.37,2013-02-22 22:02:00,
2013-02-22 14:07:00,54.7,48.3,30.10,West,267,5.0,5.0,79,0.00,OVC,SKC,0.00,615.0,WeatherDisplay:10.37,2013-02-22 22:07:00,
2013-02-22 14:12:00,54.3,47.6,30.10,WSW,257,14.0,14.0,78,0.00,OVC,SKC,0.00,603.0,WeatherDisplay:10.37,2013-02-22 22:12:00,
2013-02-22 14:17:00,53.6,47.6,30.10,WSW,254,12.7,12.7,80,0.00,OVC,SKC,0.00,594.0,WeatherDisplay:10.37,2013-02-22 22:17:00,
2013-02-22 14:22:00,54.0,49.0,30.10,SW,235,8.1,8.1,83,0.00,OVC,SKC,0.00,585.0,WeatherDisplay:10.37,2013-02-22 22:22:00,
2013-02-22 14:27:00,54.9,48.8,30.10,SSW,201,5.8,5.8,80,0.00,OVC,SKC,0.00,577.0,WeatherDisplay:10.37,2013-02-22 22:27:00,
2013-02-22 14:32:00,55.3,48.6,30.10,SW,224,8.1,8.1,78,0.00,OVC,SKC,0.00,566.0,WeatherDisplay:10.37,2013-02-22 22:32:00,
2013-02-22 14:37:00,55.4,48.7,30.10,SW,220,5.8,5.8,78,0.00,OVC,SKC,0.00,554.0,WeatherDisplay:10.37,2013-02-22 22:37:00,
2013-02-22 14:42:00,55.7,48.9,30.10,NE,36,9.2,9.2,78,0.00,OVC,SKC,0.00,545.0,WeatherDisplay:10.37,2013-02-22 22:42:00,
2013-02-22 14:47:00,55.1,48.4,30.10,NNE,29,10.4,10.4,78,0.00,OVC,SKC,0.00,533.0,WeatherDisplay:10.37,2013-02-22 22:47:00,
2013-02-22 14:52:00,55.1,48.4,30.10,NNE,32,8.1,8.1,78,0.00,BKN,SKC,0.00,522.0,WeatherDisplay:10.37,2013-02-22 22:52:00,
2013-02-22 14:57:00,55.1,48.7,30.10,NE,43,9.2,9.2,79,0.00,SCT,SKC,0.00,510.0,WeatherDisplay:10.37,2013-02-22 22:57:00,
2013-02-22 15:02:00,54.7,48.6,30.10,NE,46,10.4,10.4,80,0.00,CLR,SKC,0.00,497.0,WeatherDisplay:10.37,2013-02-22 23:02:00,
2013-02-22 15:07:00,54.9,48.8,30.10,NE,54,5.8,5.8,80,0.00,CLR,SKC,0.00,485.0,WeatherDisplay:10.37,2013-02-22 23:07:00,
2013-02-22 15:12:00,54.3,48.6,30.10,ENE,60,11.5,11.5,81,0.00,CLR,SKC,0.00,471.0,WeatherDisplay:10.37,2013-02-22 23:12:00,
2013-02-22 15:17:00,54.0,48.6,30.10,ENE,70,8.1,8.1,82,0.00,CLR,SKC,0.00,457.0,WeatherDisplay:10.37,2013-02-22 23:17:00,
2013-02-22 15:22:00,54.2,48.5,30.10,East,89,11.5,11.5,81,0.00,CLR,SKC,0.00,441.0,WeatherDisplay:10.37,2013-02-22 23:22:00,
2013-02-22 15:27:00,54.0,48.0,30.10,ESE,107,11.5,11.5,80,0.00,CLR,SKC,0.00,429.0,WeatherDisplay:10.37,2013-02-22 23:27:00,
2013-02-22 15:32:00,53.9,48.2,30.10,ENE,67,7.0,7.0,81,0.00,CLR,SKC,0.00,413.0,WeatherDisplay:10.37,2013-02-22 23:32:00,
2013-02-22 15:37:00,54.2,48.2,30.10,ESE,103,8.1,8.1,80,0.00,CLR,SKC,0.00,401.0,WeatherDisplay:10.37,2013-02-22 23:37:00,
2013-02-22 15:42:00,53.8,47.8,30.10,East,94,11.5,11.5,80,0.00,CLR,SKC,0.00,387.0,WeatherDisplay:10.37,2013-02-22 23:42:00,
2013-02-22 15:47:00,53.8,48.1,30.10,East,92,8.0,8.0,81,0.00,CLR,SKC,0.00,371.0,WeatherDisplay:10.37,2013-02-22 23:47:00,
2013-02-22 15:52:00,53.7,48.3,30.10,East,100,8.1,8.1,82,0.00,CLR,SKC,0.00,355.0,WeatherDisplay:10.37,2013-02-22 23:52:00,
2013-02-22 15:57:00,53.7,48.3,30.10,East,97,6.9,6.9,82,0.00,CLR,SKC,0.00,339.0,WeatherDisplay:10.37,2013-02-22 23:57:00,
2013-02-22 16:02:00,54.0,48.6,30.10,East,101,6.0,6.0,82,0.00,CLR,SKC,0.00,322.0,WeatherDisplay:10.37,2013-02-23 00:02:00,
2013-02-22 16:07:00,53.7,48.0,30.10,SE,131,5.8,5.8,81,0.00,CLR,SKC,0.00,308.0,WeatherDisplay:10.37,2013-02-23 00:07:00,
2013-02-22 16:12:00,53.8,48.1,30.10,ESE,123,5.8,5.8,81,0.00,CLR,SKC,0.00,290.0,WeatherDisplay:10.37,2013-02-23 00:12:00,
2013-02-22 16:17:00,54.0,48.3,30.10,SE,128,4.0,4.0,81,0.00,CLR,SKC,0.00,279.0,WeatherDisplay:10.37,2013-02-23 00:17:00,
2013-02-22 16:22:00,54.1,48.4,30.10,SE,132,5.8,5.8,81,0.00,CLR,SKC,0.00,264.0,WeatherDisplay:10.37,2013-02-23 00:22:00,
2013-02-22 16:27:00,54.1,48.4,30.10,SSE,149,6.9,6.9,81,0.00,CLR,SKC,0.00,248.0,WeatherDisplay:10.37,2013-02-23 00:27:00,
2013-02-22 16:32:00,54.1,48.4,30.10,SE,133,4.6,4.6,81,0.00,CLR,SKC,0.00,232.0,WeatherDisplay:10.37,2013-02-23 00:32:00,
2013-02-22 16:37:00,54.3,48.6,30.10,SE,143,2.3,2.3,81,0.00,CLR,SKC,0.00,218.0,WeatherDisplay:10.37,2013-02-23 00:37:00,
2013-02-22 16:42:00,54.3,48.6,30.10,SE,144,4.6,4.6,81,0.00,FEW,SKC,0.00,200.0,WeatherDisplay:10.37,2013-02-23 00:42:00,
2013-02-22 16:47:00,54.4,48.7,30.10,SE,144,4.6,4.6,81,0.00,SCT,SKC,0.00,185.0,WeatherDisplay:10.37,2013-02-23 00:47:00,
2013-02-22 16:52:00,54.4,48.4,30.10,SE,144,4.6,4.6,80,0.00,SCT,SKC,0.00,171.0,WeatherDisplay:10.37,2013-02-23 00:52:00,
2013-02-22 16:57:00,54.5,48.1,30.10,SSE,163,8.1,8.1,79,0.00,BKN,SKC,0.00,149.0,WeatherDisplay:10.37,2013-02-23 00:57:00,
2013-02-22 17:02:00,54.6,48.6,30.10,South,178,3.5,3.5,80,0.00,BKN,SKC,0.00,135.0,WeatherDisplay:10.37,2013-02-23 01:02:00,
2013-02-22 17:07:00,54.7,48.6,30.12,South,179,2.3,2.3,80,0.00,BKN,SKC,0.00,113.0,WeatherDisplay:10.37,2013-02-23 01:07:00,
2013-02-22 17:12:00,54.6,48.2,30.12,South,188,3.5,3.5,79,0.00,BKN,SKC,0.00,109.0,WeatherDisplay:10.37,2013-02-23 01:12:00,
2013-02-22 17:17:00,54.4,48.0,30.12,SSE,161,4.6,4.6,79,0.00,BKN,SKC,0.00,65.0,WeatherDisplay:10.37,2013-02-23 01:17:00,
2013-02-22 17:22:00,54.3,47.9,30.12,South,170,4.6,4.6,79,0.00,BKN,SKC,0.00,63.0,WeatherDisplay:10.37,2013-02-23 01:22:00,
2013-02-22 17:27:00,54.2,47.8,30.12,SSE,161,5.8,5.8,79,0.00,BKN,SKC,0.00,63.0,WeatherDisplay:10.37,2013-02-23 01:27:00,
2013-02-22 17:32:00,54.2,47.8,30.12,SSE,161,2.3,2.3,79,0.00,BKN,SKC,0.00,42.0,WeatherDisplay:10.37,2013-02-23 01:32:00,
2013-02-22 17:37:00,54.1,47.7,30.12,SSE,157,5.0,5.0,79,0.00,BKN,SKC,0.00,25.0,WeatherDisplay:10.37,2013-02-23 01:37:00,
2013-02-22 17:42:00,53.9,47.5,30.12,SSE,156,0.0,0.0,79,0.00,OVC,SKC,0.00,18.0,WeatherDisplay:10.37,2013-02-23 01:42:00,
2013-02-22 17:47:00,53.8,47.8,30.12,SSE,154,3.5,3.5,80,0.00,OVC,SKC,0.00,12.0,WeatherDisplay:10.37,2013-02-23 01:47:00,
2013-02-22 17:52:00,53.6,47.6,30.12,SSE,154,2.3,2.3,80,0.00,OVC,SKC,0.00,7.0,WeatherDisplay:10.37,2013-02-23 01:52:00,
2013-02-22 17:57:00,53.5,47.5,30.12,SSE,154,1.2,0.0,80,0.00,OVC,SKC,0.00,0.0,WeatherDisplay:10.37,2013-02-23 01:57:00,
2013-02-22 18:02:00,53.4,47.7,30.12,SSE,154,1.2,1.2,81,0.00,,SKC,0.00,0.0,WeatherDisplay:10.37,2013-02-23 02:02:00,
2013-02-22 18:07:00,53.3,47.6,30.12,SSE,154,3.5,3.5,81,0.00,,SKC,0.00,0.0,WeatherDisplay:10.37,2013-02-23 02:07:00,
2013-02-22 18:12:00,53.1,47.7,30.12,SSE,155,3.5,3.5,82,0.00,,SKC,0.00,0.0,WeatherDisplay:10.37,2013-02-23 02:12:00,
2013-02-22 18:17:00,53.0,47.7,30.12,SSE,155,3.5,3.5,82,0.00,,SKC,0.00,0.0,WeatherDisplay:10.37,2013-02-23 02:17:00,
2013-02-22 18:22:00,52.9,47.6,30.12,SSE,155,2.3,2.3,82,0.00,,SKC,0.00,0.0,WeatherDisplay:10.37,2013-02-23 02:22:00,
2013-02-22 18:27:00,52.8,47.5,30.12,SSE,156,4.6,4.6,82,0.00,,SKC,0.00,0.0,WeatherDisplay:10.37,2013-02-23 02:27:00,
2013-02-22 18:32:00,52.7,47.7,30.12,SSE,165,3.5,3.5,83,0.00,,SKC,0.00,0.0,WeatherDisplay:10.37,2013-02-23 02:32:00,
2013-02-22 18:37:00,52.7,47.7,30.13,SSE,165,2.3,2.3,83,0.00,,SKC,0.00,0.0,WeatherDisplay:10.37,2013-02-23 02:37:00,
2013-02-22 18:42:00,52.5,47.5,30.13,SSE,165,1.2,2.5,83,0.00,,SKC,0.00,0.0,WeatherDisplay:10.37,2013-02-23 02:42:00,
2013-02-22 18:47:00,52.4,47.7,30.13,SSE,151,2.0,0.0,84,0.00,,SKC,0.00,0.0,WeatherDisplay:10.37,2013-02-23 02:47:00,
2013-02-22 18:52:00,52.2,47.5,30.13,SSE,149,3.5,3.5,84,0.00,,SKC,0.00,0.0,WeatherDisplay:10.37,2013-02-23 02:52:00,
2013-02-22 18:57:00,52.1,47.4,30.13,SSE,149,1.2,1.2,84,0.00,,SKC,0.00,0.0,WeatherDisplay:10.37,2013-02-23 02:57:00,
2013-02-22 19:02:00,52.0,47.3,30.13,SSE,150,3.5,3.5,84,0.00,,SKC,0.00,0.0,WeatherDisplay:10.37,2013-02-23 03:02:00,
2013-02-22 19:07:00,51.9,47.5,30.13,SSE,157,6.0,6.0,85,0.00,,SKC,0.00,0.0,WeatherDisplay:10.37,2013-02-23 03:07:00,
2013-02-22 19:12:00,51.7,47.0,30.13,SE,136,5.8,5.8,84,0.00,,SKC,0.00,0.0,WeatherDisplay:10.37,2013-02-23 03:12:00,
2013-02-22 19:17:00,51.5,46.8,30.13,SE,138,2.0,2.0,84,0.00,,SKC,0.00,0.0,WeatherDisplay:10.37,2013-02-23 03:17:00,
2013-02-22 19:22:00,51.4,46.4,30.13,SE,138,5.8,5.8,83,0.00,,SKC,0.00,0.0,WeatherDisplay:10.37,2013-02-23 03:22:00,
2013-02-22 19:27:00,51.4,46.7,30.13,ESE,117,5.8,5.8,84,0.00,,SKC,0.00,0.0,WeatherDisplay:10.37,2013-02-23 03:27:00,
2013-02-22 19:32:00,51.4,46.4,30.13,SE,130,2.0,2.0,83,0.00,,SKC,0.00,0.0,WeatherDisplay:10.37,2013-02-23 03:32:00,
2013-02-22 19:37:00,51.3,46.3,30.14,SE,128,4.6,4.6,83,0.00,,SKC,0.00,0.0,WeatherDisplay:10.37,2013-02-23 03:37:00,
2013-02-22 19:42:00,51.2,46.5,30.14,ESE,119,3.5,3.5,84,0.00,,SKC,0.00,0.0,WeatherDisplay:10.37,2013-02-23 03:42:00,
2013-02-22 19:47:00,51.2,46.5,30.14,ESE,119,3.5,3.5,84,0.00,,SKC,0.00,0.0,WeatherDisplay:10.37,2013-02-23 03:47:00,
2013-02-22 19:52:00,51.0,46.3,30.13,ESE,120,5.8,5.8,84,0.00,,SKC,0.00,0.0,WeatherDisplay:10.37,2013-02-23 03:52:00,
2013-02-22 19:57:00,50.9,46.2,30.13,ESE,111,1.2,1.2,84,0.00,,SKC,0.00,0.0,WeatherDisplay:10.37,2013-02-23 03:57:00,
2013-02-22 20:02:00,50.8,46.1,30.13,ESE,111,2.3,2.3,84,0.00,,SKC,0.00,0.0,WeatherDisplay:10.37,2013-02-23 04:02:00,
2013-02-22 20:07:00,50.7,46.0,30.15,NE,54,3.5,3.5,84,0.00,,SKC,0.00,0.0,WeatherDisplay:10.37,2013-02-23 04:07:00,
2013-02-22 20:12:00,50.6,45.9,30.15,NE,54,0.0,0.0,84,0.00,,SKC,0.00,0.0,WeatherDisplay:10.37,2013-02-23 04:12:00,
2013-02-22 20:17:00,50.3,45.6,30.15,NE,54,2.3,2.3,84,0.00,,SKC,0.00,0.0,WeatherDisplay:10.37,2013-02-23 04:17:00,
2013-02-22 20:22:00,49.9,45.3,30.15,NE,54,1.2,1.2,84,0.00,,SKC,0.00,0.0,WeatherDisplay:10.37,2013-02-23 04:22:00,
2013-02-22 20:27:00,49.5,45.2,30.15,NE,54,0.0,0.0,85,0.00,,SKC,0.00,0.0,WeatherDisplay:10.37,2013-02-23 04:27:00,
2013-02-22 20:32:00,49.3,45.3,30.15,NE,54,0.0,0.0,86,0.00,,SKC,0.00,0.0,WeatherDisplay:10.37,2013-02-23 04:32:00,
2013-02-22 20:37:00,49.0,45.0,30.15,NE,54,2.3,2.3,86,0.00,,SKC,0.00,0.0,WeatherDisplay:10.37,2013-02-23 04:37:00,
2013-02-22 20:42:00,48.7,44.7,30.15,NE,54,2.0,2.0,86,0.00,,SKC,0.00,0.0,WeatherDisplay:10.37,2013-02-23 04:42:00,
2013-02-22 20:47:00,48.4,44.4,30.15,NE,54,2.3,2.3,86,0.00,,SKC,0.00,0.0,WeatherDisplay:10.37,2013-02-23 04:47:00,
2013-02-22 20:52:00,48.2,44.5,30.16,NE,54,2.3,2.3,87,0.00,,SKC,0.00,0.0,WeatherDisplay:10.37,2013-02-23 04:52:00,
2013-02-22 20:57:00,47.9,44.2,30.16,NE,54,1.2,0.0,87,0.00,,SKC,0.00,0.0,WeatherDisplay:10.37,2013-02-23 04:57:00,
2013-02-22 21:00:00,47.9,44.2,30.16,NE,54,0.0,0.0,87,0.00,,SKC,0.00,0.0,WeatherDisplay:10.37,2013-02-23 05:00:00,
2013-02-22 21:05:00,47.7,44.0,30.16,NE,54,1.2,1.2,87,0.00,,SKC,0.00,0.0,WeatherDisplay:10.37,2013-02-23 05:05:00,
2013-02-22 21:10:00,47.6,43.9,30.15,NE,54,1.2,0.0,87,0.00,,SKC,0.00,0.0,WeatherDisplay:10.37,2013-02-23 05:10:00,
2013-02-22 21:15:00,47.6,43.9,30.15,NE,54,0.0,0.0,87,0.00,,SKC,0.00,0.0,WeatherDisplay:10.37,2013-02-23 05:15:00,
2013-02-22 21:20:00,47.6,43.9,30.15,NE,54,0.0,0.0,87,0.00,,SKC,0.00,0.0,WeatherDisplay:10.37,2013-02-23 05:20:00,
2013-02-22 21:25:00,47.5,44.1,30.15,NE,54,0.0,0.0,88,0.00,,SKC,0.00,0.0,WeatherDisplay:10.37,2013-02-23 05:25:00,
2013-02-22 21:30:00,47.2,43.5,30.15,NE,54,1.2,1.2,87,0.00,,SKC,0.00,0.0,WeatherDisplay:10.37,2013-02-23 05:30:00,
2013-02-22 21:35:00,47.0,43.6,30.15,NE,54,3.0,3.0,88,0.00,,SKC,0.00,0.0,WeatherDisplay:10.37,2013-02-23 05:35:00,
2013-02-22 21:40:00,46.7,43.0,30.15,NE,43,5.0,5.0,87,0.00,,SKC,0.00,0.0,WeatherDisplay:10.37,2013-02-23 05:40:00,
2013-02-22 21:45:00,46.6,42.9,30.15,NE,41,3.5,3.5,87,0.00,,SKC,0.00,0.0,WeatherDisplay:10.37,2013-02-23 05:45:00,
2013-02-22 21:50:00,46.5,42.8,30.15,NE,41,3.5,3.5,87,0.00,,SKC,0.00,0.0,WeatherDisplay:10.37,2013-02-23 05:50:00,
2013-02-22 21:55:00,46.4,42.7,30.16,NE,41,0.0,0.0,87,0.00,,SKC,0.00,0.0,WeatherDisplay:10.37,2013-02-23 05:55:00,
2013-02-22 22:00:00,46.3,42.6,30.16,NE,41,4.0,4.0,87,0.00,,SKC,0.00,0.0,WeatherDisplay:10.37,2013-02-23 06:00:00,
2013-02-22 22:05:00,46.3,42.6,30.16,NW,309,4.6,4.6,87,0.00,,SKC,0.00,0.0,WeatherDisplay:10.37,2013-02-23 06:05:00,
2013-02-22 22:10:00,46.1,42.4,30.17,NNW,340,5.8,5.8,87,0.00,,SKC,0.00,0.0,WeatherDisplay:10.37,2013-02-23 06:10:00,
2013-02-22 22:15:00,45.9,41.9,30.17,NNW,330,3.5,3.5,86,0.00,,SKC,0.00,0.0,WeatherDisplay:10.37,2013-02-23 06:15:00,
2013-02-22 22:20:00,45.8,41.9,30.17,NNW,330,3.5,3.5,86,0.00,,SKC,0.00,0.0,WeatherDisplay:10.37,2013-02-23 06:20:00,
2013-02-22 22:25:00,45.9,41.9,30.18,NNW,330,1.0,0.0,86,0.00,,SKC,0.00,0.0,WeatherDisplay:10.37,2013-02-23 06:25:00,
2013-02-22 22:30:00,46.1,42.1,30.18,NNW,330,2.3,2.3,86,0.00,,SKC,0.00,0.0,WeatherDisplay:10.37,2013-02-23 06:30:00,
2013-02-22 22:35:00,46.2,41.9,30.18,NNW,330,2.3,2.3,85,0.00,,SKC,0.00,0.0,WeatherDisplay:10.37,2013-02-23 06:35:00,
2013-02-22 22:40:00,46.1,41.8,30.17,NNW,330,1.0,0.0,85,0.00,,SKC,0.00,0.0,WeatherDisplay:10.37,2013-02-23 06:40:00,
2013-02-22 22:45:00,46.4,42.1,30.17,NNW,330,1.2,1.2,85,0.00,,SKC,0.00,0.0,WeatherDisplay:10.37,2013-02-23 06:45:00,
2013-02-22 22:50:00,46.3,41.7,30.17,NNW,330,3.5,3.5,84,0.00,,SKC,0.00,0.0,WeatherDisplay:10.37,2013-02-23 06:50:00,
2013-02-22 22:55:00,46.0,41.7,30.18,NNW,330,1.2,0.0,85,0.00,,SKC,0.00,0.0,WeatherDisplay:10.37,2013-02-23 06:55:00,
2013-02-22 23:01:00,45.9,41.6,30.18,NNW,330,2.3,2.3,85,0.00,,SKC,0.00,0.0,WeatherDisplay:10.37,2013-02-23 07:01:00,
2013-02-22 23:06:00,45.9,41.3,30.18,NNW,330,2.3,2.3,84,0.00,,SKC,0.00,0.0,WeatherDisplay:10.37,2013-02-23 07:06:00,
2013-02-22 23:11:00,45.9,41.3,30.18,NNW,330,0.0,0.0,84,0.00,,SKC,0.00,0.0,WeatherDisplay:10.37,2013-02-23 07:11:00,
2013-02-22 23:16:00,46.0,41.7,30.18,NNW,330,2.3,2.3,85,0.00,,SKC,0.00,0.0,WeatherDisplay:10.37,2013-02-23 07:16:00,
2013-02-22 23:21:00,46.0,41.7,30.18,NNW,330,2.3,2.3,85,0.00,,SKC,0.00,0.0,WeatherDisplay:10.37,2013-02-23 07:21:00,
2013-02-22 23:26:00,45.9,41.6,30.17,NNW,330,3.0,3.0,85,0.00,,SKC,0.00,0.0,WeatherDisplay:10.37,2013-02-23 07:26:00,
2013-02-22 23:31:00,45.9,41.6,30.17,NNW,330,1.2,1.2,85,0.00,,SKC,0.00,0.0,WeatherDisplay:10.37,2013-02-23 07:31:00,
2013-02-22 23:36:00,45.9,41.6,30.17,NNW,330,3.5,3.5,85,0.00,,SKC,0.00,0.0,WeatherDisplay:10.37,2013-02-23 07:36:00,
2013-02-22 23:41:00,46.0,41.7,30.18,NNW,330,2.0,2.0,85,0.00,,SKC,0.00,0.0,WeatherDisplay:10.37,2013-02-23 07:41:00,
2013-02-22 23:46:00,46.1,41.5,30.18,NNW,331,1.2,1.2,84,0.00,,SKC,0.00,0.0,WeatherDisplay:10.37,2013-02-23 07:46:00,
2013-02-22 23:51:00,46.1,41.5,30.18,NNW,331,3.5,3.5,84,0.00,,SKC,0.00,0.0,WeatherDisplay:10.37,2013-02-23 07:51:00,
2013-02-22 23:56:00,46.2,41.6,30.17,NNW,331,0.0,0.0,84,0.00,,SKC,0.00,0.0,WeatherDisplay:10.37,2013-02-23 07:56:00,